createdAt,value
2023-08-29T00:01:38.819Z,23.67
2023-08-29T00:04:05.729Z,23.70
2023-08-29T00:06:32.683Z,23.65
2023-08-29T00:08:59.364Z,23.63
2023-08-29T00:11:26.210Z,23.57
2023-08-29T00:13:53.787Z,23.53
2023-08-29T00:16:20.703Z,23.47
2023-08-29T00:18:47.448Z,23.49
2023-08-29T00:21:14.169Z,23.44
2023-08-29T00:23:40.861Z,23.51
2023-08-29T00:26:07.733Z,23.49
2023-08-29T00:28:34.474Z,23.45
2023-08-29T00:31:01.354Z,23.43
2023-08-29T00:33:28.106Z,23.45
2023-08-29T00:35:54.871Z,23.38
2023-08-29T00:38:21.590Z,23.36
2023-08-29T00:40:48.400Z,23.35
2023-08-29T00:43:15.173Z,23.34
2023-08-29T00:45:42.145Z,23.29
2023-08-29T00:48:11.930Z,23.28
2023-08-29T00:50:39.154Z,23.29
2023-08-29T00:53:07.066Z,23.30
2023-08-29T00:55:35.267Z,23.23
2023-08-29T00:58:03.429Z,23.27
2023-08-29T01:00:31.537Z,23.27
2023-08-29T01:02:59.124Z,23.15
2023-08-29T01:05:26.193Z,23.15
2023-08-29T01:07:54.386Z,23.15
2023-08-29T01:10:23.584Z,23.07
2023-08-29T01:13:12.265Z,23.02
2023-08-29T01:15:43.344Z,22.99
2023-08-29T01:18:12.896Z,23.04
2023-08-29T01:20:40.809Z,22.94
2023-08-29T01:23:14.859Z,22.93
2023-08-29T01:26:08.357Z,22.86
2023-08-29T01:28:36.905Z,22.85
2023-08-29T01:31:04.801Z,22.81
2023-08-29T01:33:31.718Z,22.79
2023-08-29T01:35:58.458Z,22.87
2023-08-29T01:38:25.327Z,22.79
2023-08-29T01:40:52.172Z,22.72
2023-08-29T01:43:19.183Z,22.75
2023-08-29T01:45:46.003Z,22.75
2023-08-29T01:48:12.894Z,22.70
2023-08-29T01:50:40.804Z,22.69
2023-08-29T01:53:09.279Z,22.68
2023-08-29T01:55:36.862Z,22.67
2023-08-29T01:58:04.991Z,22.63
2023-08-29T02:00:33.020Z,22.56
2023-08-29T02:02:59.741Z,22.49
2023-08-29T02:05:26.571Z,22.51
2023-08-29T02:07:53.328Z,22.44
2023-08-29T02:10:20.254Z,22.47
2023-08-29T02:12:46.969Z,22.47
2023-08-29T02:15:13.721Z,22.46
2023-08-29T02:17:43.038Z,22.40
2023-08-29T02:20:09.970Z,22.27
2023-08-29T02:22:37.709Z,22.26
2023-08-29T02:25:05.852Z,22.20
2023-08-29T02:27:35.611Z,22.19
2023-08-29T02:30:04.416Z,22.18
2023-08-29T02:32:32.208Z,22.19
2023-08-29T02:34:59.013Z,22.15
2023-08-29T02:37:25.740Z,22.13
2023-08-29T02:39:52.485Z,22.24
2023-08-29T02:42:20.874Z,22.24
2023-08-29T02:44:47.559Z,22.12
2023-08-29T02:47:14.512Z,22.10
2023-08-29T02:49:41.295Z,22.20
2023-08-29T02:52:08.059Z,22.07
2023-08-29T02:54:35.366Z,22.01
2023-08-29T02:57:02.067Z,22.04
2023-08-29T02:59:29.118Z,21.97
2023-08-29T03:01:55.833Z,21.95
2023-08-29T03:04:22.610Z,21.92
2023-08-29T03:06:51.822Z,21.98
2023-08-29T03:09:18.785Z,21.91
2023-08-29T03:11:45.535Z,21.94
2023-08-29T03:14:12.465Z,21.86
2023-08-29T03:16:39.253Z,21.81
2023-08-29T03:19:06.259Z,21.77
2023-08-29T03:21:33.131Z,21.81
2023-08-29T03:23:59.888Z,21.85
2023-08-29T03:26:26.624Z,21.77
2023-08-29T03:28:53.392Z,21.78
2023-08-29T03:31:20.434Z,21.74
2023-08-29T03:33:48.042Z,21.83
2023-08-29T03:36:15.391Z,21.72
2023-08-29T03:38:43.348Z,21.70
2023-08-29T03:41:10.523Z,21.71
2023-08-29T03:43:37.469Z,21.73
2023-08-29T03:46:05.412Z,21.73
2023-08-29T03:48:32.967Z,21.72
2023-08-29T03:51:00.080Z,21.74
2023-08-29T03:53:26.908Z,21.76
2023-08-29T03:55:54.049Z,21.77
2023-08-29T03:58:21.118Z,21.74
2023-08-29T04:00:48.019Z,21.82
2023-08-29T04:03:15.027Z,21.92
2023-08-29T04:05:41.884Z,21.95
2023-08-29T04:08:08.904Z,21.98
2023-08-29T04:10:40.219Z,22.10
2023-08-29T04:13:07.509Z,22.05
2023-08-29T04:15:34.959Z,22.01
2023-08-29T04:18:05.421Z,22.05
2023-08-29T04:20:32.634Z,22.09
2023-08-29T04:22:59.541Z,22.08
2023-08-29T04:25:29.615Z,22.05
2023-08-29T04:27:56.842Z,22.08
2023-08-29T04:30:23.606Z,22.10
2023-08-29T04:32:51.696Z,22.06
2023-08-29T04:35:18.993Z,22.12
2023-08-29T04:37:49.883Z,22.10
2023-08-29T04:40:17.626Z,22.16
2023-08-29T04:42:46.268Z,22.33
2023-08-29T04:45:13.964Z,22.46
2023-08-29T04:47:41.401Z,22.56
2023-08-29T04:50:09.222Z,22.59
2023-08-29T04:52:36.131Z,22.57
2023-08-29T04:55:03.063Z,22.77
2023-08-29T04:57:30.764Z,22.87
2023-08-29T04:59:57.462Z,22.85
2023-08-29T05:02:24.403Z,22.99
2023-08-29T05:04:53.684Z,23.03
2023-08-29T05:07:20.636Z,23.34
2023-08-29T05:09:48.263Z,23.42
2023-08-29T05:12:15.220Z,23.39
2023-08-29T05:14:42.103Z,23.43
2023-08-29T05:17:10.382Z,23.53
2023-08-29T05:19:37.286Z,23.57
2023-08-29T05:22:04.328Z,23.63
2023-08-29T05:24:31.170Z,23.67
2023-08-29T05:26:57.938Z,23.87
2023-08-29T05:29:24.708Z,23.73
2023-08-29T05:31:51.574Z,23.79
2023-08-29T05:34:18.284Z,23.96
2023-08-29T05:36:46.721Z,23.99
2023-08-29T05:39:13.423Z,24.19
2023-08-29T05:41:40.239Z,24.42
2023-08-29T05:44:06.949Z,24.24
2023-08-29T05:46:33.684Z,24.05
2023-08-29T05:49:00.917Z,24.21
2023-08-29T05:51:28.042Z,24.06
2023-08-29T05:53:55.174Z,24.17
2023-08-29T05:56:21.953Z,23.90
2023-08-29T05:58:48.751Z,23.96
2023-08-29T06:01:16.249Z,23.97
2023-08-29T06:03:43.723Z,23.96
2023-08-29T06:06:11.001Z,24.02
2023-08-29T06:08:37.810Z,24.03
2023-08-29T06:11:05.066Z,24.25
2023-08-29T06:13:32.488Z,24.34
2023-08-29T06:15:59.304Z,24.52
2023-08-29T06:18:26.114Z,24.74
2023-08-29T06:20:52.993Z,24.85
2023-08-29T06:23:19.949Z,25.12
2023-08-29T06:25:46.737Z,25.26
2023-08-29T06:28:13.610Z,25.09
2023-08-29T06:30:40.524Z,25.16
2023-08-29T06:33:08.100Z,25.02
2023-08-29T06:35:39.526Z,25.00
2023-08-29T06:38:08.750Z,25.27
2023-08-29T06:40:40.858Z,25.20
2023-08-29T06:43:07.675Z,25.15
2023-08-29T06:45:34.499Z,25.02
2023-08-29T06:48:01.360Z,25.35
2023-08-29T06:50:28.133Z,25.48
2023-08-29T06:52:55.044Z,25.55
2023-08-29T06:55:21.797Z,25.85
2023-08-29T06:57:48.655Z,26.11
2023-08-29T07:00:17.863Z,25.82
2023-08-29T07:02:44.789Z,25.82
2023-08-29T07:05:11.589Z,26.13
2023-08-29T07:07:40.062Z,26.37
2023-08-29T07:10:06.940Z,26.27
2023-08-29T07:12:33.925Z,26.08
2023-08-29T07:15:02.142Z,26.22
2023-08-29T07:17:29.324Z,26.17
2023-08-29T07:19:56.340Z,26.11
2023-08-29T07:22:24.698Z,26.32
2023-08-29T07:24:52.135Z,26.88
2023-08-29T07:27:19.192Z,26.99
2023-08-29T07:29:45.994Z,26.77
2023-08-29T07:32:12.750Z,26.50
2023-08-29T07:34:41.279Z,26.59
2023-08-29T07:37:08.616Z,26.94
2023-08-29T07:39:35.874Z,27.32
2023-08-29T07:42:02.906Z,27.32
2023-08-29T07:44:30.741Z,27.37
2023-08-29T07:47:13.583Z,27.20
2023-08-29T07:49:42.290Z,27.55
2023-08-29T07:52:09.391Z,27.89
2023-08-29T07:54:36.452Z,28.04
2023-08-29T07:57:03.289Z,28.32
2023-08-29T07:59:30.116Z,28.37
2023-08-29T08:01:57.314Z,28.42
2023-08-29T08:04:24.316Z,28.34
2023-08-29T08:06:51.212Z,28.54
2023-08-29T08:09:18.064Z,28.67
2023-08-29T08:11:44.918Z,28.49
2023-08-29T08:14:12.605Z,28.48
2023-08-29T08:16:39.547Z,28.53
2023-08-29T08:19:06.704Z,28.57
2023-08-29T08:21:33.584Z,29.00
2023-08-29T08:24:00.658Z,28.71
2023-08-29T08:26:28.073Z,28.11
2023-08-29T08:28:56.218Z,28.10
2023-08-29T08:31:24.865Z,27.93
2023-08-29T08:33:51.683Z,28.33
2023-08-29T08:36:18.492Z,28.55
2023-08-29T08:38:45.188Z,28.78
2023-08-29T08:41:12.604Z,28.69
2023-08-29T08:43:41.776Z,28.62
2023-08-29T08:46:08.925Z,28.75
2023-08-29T08:48:36.823Z,29.07
2023-08-29T08:51:05.412Z,29.69
2023-08-29T08:53:32.744Z,30.06
2023-08-29T08:56:00.602Z,29.86
2023-08-29T08:58:27.624Z,29.72
2023-08-29T09:00:55.282Z,29.99
2023-08-29T09:03:22.275Z,29.77
2023-08-29T09:05:49.187Z,29.77
2023-08-29T09:08:16.224Z,29.64
2023-08-29T09:10:42.988Z,30.14
2023-08-29T09:13:15.994Z,30.37
2023-08-29T09:15:43.013Z,30.56
2023-08-29T09:18:14.671Z,30.40
2023-08-29T09:20:44.221Z,30.76
2023-08-29T09:23:26.973Z,29.93
2023-08-29T09:25:57.508Z,30.19
2023-08-29T09:28:26.945Z,30.17
2023-08-29T09:30:53.844Z,30.34
2023-08-29T09:33:22.734Z,30.16
2023-08-29T09:35:49.898Z,30.02
2023-08-29T09:38:17.501Z,29.94
2023-08-29T09:40:49.985Z,29.88
2023-08-29T09:43:18.216Z,29.64
2023-08-29T09:45:54.629Z,29.68
2023-08-29T09:48:21.657Z,30.21
2023-08-29T09:50:49.206Z,30.46
2023-08-29T09:53:17.417Z,30.25
2023-08-29T09:55:49.484Z,30.37
2023-08-29T09:58:24.939Z,30.38
2023-08-29T10:00:53.034Z,30.18
2023-08-29T10:03:20.574Z,30.57
2023-08-29T10:05:48.323Z,30.57
2023-08-29T10:08:18.252Z,30.21
2023-08-29T10:10:45.125Z,30.39
2023-08-29T10:13:12.616Z,29.87
2023-08-29T10:15:40.763Z,29.93
2023-08-29T10:18:08.904Z,30.36
2023-08-29T10:20:36.593Z,30.17
2023-08-29T10:23:04.351Z,30.32
2023-08-29T10:25:32.094Z,30.63
2023-08-29T10:27:59.162Z,30.62
2023-08-29T10:30:26.793Z,31.26
2023-08-29T10:32:56.726Z,31.24
2023-08-29T10:35:27.228Z,30.91
2023-08-29T10:37:54.154Z,30.95
2023-08-29T10:40:21.544Z,30.87
2023-08-29T10:42:49.334Z,30.49
2023-08-29T10:45:16.256Z,30.62
2023-08-29T10:47:49.285Z,30.42
2023-08-29T10:50:21.310Z,30.56
2023-08-29T10:52:48.545Z,30.88
2023-08-29T10:55:25.391Z,30.84
2023-08-29T10:57:59.699Z,30.98
2023-08-29T11:00:36.566Z,30.86
2023-08-29T11:03:04.189Z,30.94
2023-08-29T11:05:31.284Z,30.59
2023-08-29T11:08:16.940Z,30.31
2023-08-29T11:10:43.819Z,30.11
2023-08-29T11:13:13.299Z,30.09
2023-08-29T11:15:49.157Z,30.20
2023-08-29T11:18:23.263Z,30.06
2023-08-29T11:20:50.309Z,30.17
2023-08-29T11:23:17.050Z,30.00
2023-08-29T11:25:43.798Z,30.28
2023-08-29T11:28:11.229Z,30.12
2023-08-29T11:30:44.163Z,30.31
2023-08-29T11:33:12.109Z,30.47
2023-08-29T11:35:39.316Z,30.45
2023-08-29T11:38:07.434Z,30.20
2023-08-29T11:40:41.430Z,29.82
2023-08-29T11:43:54.807Z,29.87
2023-08-29T11:46:04.759Z,30.06
2023-08-29T11:48:32.495Z,30.12
2023-08-29T11:51:02.387Z,30.45
2023-08-29T11:53:29.901Z,30.34
2023-08-29T11:55:56.850Z,30.46
2023-08-29T11:58:36.612Z,30.79
2023-08-29T12:01:04.737Z,30.78
2023-08-29T12:03:35.188Z,30.71
2023-08-29T12:06:04.791Z,31.12
2023-08-29T12:08:35.812Z,30.67
2023-08-29T12:11:02.759Z,30.92
2023-08-29T12:13:29.529Z,31.11
2023-08-29T12:15:59.370Z,31.32
2023-08-29T12:18:26.883Z,31.16
2023-08-29T12:21:09.391Z,31.40
2023-08-29T12:23:36.201Z,31.11
2023-08-29T12:26:02.988Z,31.41
2023-08-29T12:28:29.835Z,31.22
2023-08-29T12:30:57.924Z,31.17
2023-08-29T12:33:25.029Z,30.78
2023-08-29T12:35:51.844Z,30.79
2023-08-29T12:38:19.444Z,30.38
2023-08-29T12:40:46.569Z,30.46
2023-08-29T12:43:14.260Z,30.27
2023-08-29T12:45:52.672Z,30.15
2023-08-29T12:48:24.125Z,30.15
2023-08-29T12:50:50.830Z,29.96
2023-08-29T12:53:18.125Z,30.15
2023-08-29T12:55:44.944Z,30.16
2023-08-29T12:58:11.874Z,29.94
2023-08-29T13:00:39.391Z,30.39
2023-08-29T13:03:06.955Z,30.29
2023-08-29T13:05:33.776Z,30.53
2023-08-29T13:08:00.563Z,30.71
2023-08-29T13:10:27.410Z,30.97
2023-08-29T13:12:54.250Z,31.09
2023-08-29T13:15:21.185Z,31.03
2023-08-29T13:17:50.749Z,31.35
2023-08-29T13:20:18.154Z,31.43
2023-08-29T13:22:47.283Z,31.63
2023-08-29T13:25:14.167Z,31.84
2023-08-29T13:27:41.135Z,31.83
2023-08-29T13:30:08.194Z,31.91
2023-08-29T13:32:38.011Z,32.06
2023-08-29T13:35:05.681Z,32.23
2023-08-29T13:37:32.901Z,32.30
2023-08-29T13:39:59.982Z,31.91
2023-08-29T13:42:26.822Z,31.78
2023-08-29T13:44:55.692Z,31.66
2023-08-29T13:47:23.419Z,31.77
2023-08-29T13:49:50.180Z,32.35
2023-08-29T13:52:16.935Z,32.24
2023-08-29T13:54:43.643Z,32.09
2023-08-29T13:57:10.564Z,32.33
2023-08-29T13:59:37.326Z,31.80
2023-08-29T14:02:04.266Z,31.56
2023-08-29T14:04:30.977Z,31.46
2023-08-29T14:06:57.902Z,31.24
2023-08-29T14:09:24.708Z,31.05
2023-08-29T14:11:51.569Z,31.21
2023-08-29T14:14:18.466Z,30.80
2023-08-29T14:16:45.403Z,30.53
2023-08-29T14:19:13.971Z,30.37
2023-08-29T14:21:40.758Z,29.70
2023-08-29T14:24:07.816Z,29.67
2023-08-29T14:26:34.548Z,29.41
2023-08-29T14:29:01.384Z,28.95
2023-08-29T14:31:28.109Z,28.89
2023-08-29T14:33:54.973Z,29.32
2023-08-29T14:36:21.892Z,29.69
2023-08-29T14:38:48.652Z,29.56
2023-08-29T14:41:15.377Z,29.73
2023-08-29T14:43:42.391Z,29.89
2023-08-29T14:46:09.353Z,30.43
2023-08-29T14:48:36.729Z,30.62
2023-08-29T14:51:03.839Z,30.34
2023-08-29T14:53:30.640Z,30.13
2023-08-29T14:55:57.462Z,30.30
2023-08-29T14:58:25.700Z,30.51
2023-08-29T15:00:52.514Z,30.70
2023-08-29T15:03:19.597Z,30.12
2023-08-29T15:05:46.413Z,30.48
2023-08-29T15:08:13.299Z,30.81
2023-08-29T15:10:39.976Z,30.93
2023-08-29T15:13:06.812Z,30.76
2023-08-29T15:15:36.732Z,30.82
2023-08-29T15:18:03.716Z,30.50
2023-08-29T15:20:31.304Z,30.55
2023-08-29T15:22:58.117Z,30.34
2023-08-29T15:25:24.899Z,30.69
2023-08-29T15:27:51.733Z,30.61
2023-08-29T15:30:18.508Z,30.61
2023-08-29T15:32:46.917Z,30.92
2023-08-29T15:35:13.831Z,31.16
2023-08-29T15:37:40.532Z,31.17
2023-08-29T15:40:08.211Z,30.84
2023-08-29T15:42:35.125Z,30.81
2023-08-29T15:45:01.920Z,30.84
2023-08-29T15:47:28.787Z,30.81
2023-08-29T15:49:55.568Z,31.03
2023-08-29T15:52:22.382Z,30.68
2023-08-29T15:54:49.541Z,30.08
2023-08-29T15:57:17.067Z,30.16
2023-08-29T15:59:43.952Z,30.27
2023-08-29T16:02:13.825Z,29.89
2023-08-29T16:04:43.877Z,29.84
2023-08-29T16:07:10.754Z,29.28
2023-08-29T16:09:37.555Z,28.57
2023-08-29T16:12:04.646Z,28.44
2023-08-29T16:14:31.401Z,28.40
2023-08-29T16:16:58.482Z,28.40
2023-08-29T16:19:25.576Z,27.99
2023-08-29T16:21:52.344Z,28.02
2023-08-29T16:24:19.290Z,27.99
2023-08-29T16:26:46.445Z,27.80
2023-08-29T16:29:13.482Z,27.71
2023-08-29T16:31:42.013Z,27.62
2023-08-29T16:34:08.817Z,27.56
2023-08-29T16:36:35.613Z,27.39
2023-08-29T16:39:03.283Z,27.30
2023-08-29T16:41:30.234Z,27.20
2023-08-29T16:43:56.988Z,27.14
2023-08-29T16:46:23.690Z,27.08
2023-08-29T16:48:50.580Z,26.96
2023-08-29T16:51:17.707Z,27.02
2023-08-29T16:53:44.817Z,26.88
2023-08-29T16:56:11.622Z,26.80
2023-08-29T16:58:38.368Z,26.80
2023-08-29T17:01:05.213Z,26.75
2023-08-29T17:03:32.143Z,26.83
2023-08-29T17:05:59.133Z,26.75
2023-08-29T17:08:25.923Z,26.67
2023-08-29T17:10:53.197Z,26.69
2023-08-29T17:13:20.085Z,26.73
2023-08-29T17:15:46.943Z,26.79
2023-08-29T17:18:13.664Z,26.77
2023-08-29T17:20:40.459Z,26.80
2023-08-29T17:23:07.225Z,26.66
2023-08-29T17:25:34.189Z,26.59
2023-08-29T17:28:00.930Z,26.65
2023-08-29T17:30:27.852Z,26.77
2023-08-29T17:32:54.752Z,26.71
2023-08-29T17:35:21.496Z,26.69
2023-08-29T17:37:48.362Z,26.71
2023-08-29T17:40:15.163Z,26.51
2023-08-29T17:42:43.701Z,26.46
2023-08-29T17:45:11.155Z,26.44
2023-08-29T17:47:37.996Z,26.35
2023-08-29T17:50:08.226Z,26.46
2023-08-29T17:52:35.324Z,26.53
2023-08-29T17:55:03.145Z,26.52
2023-08-29T17:57:30.611Z,26.27
2023-08-29T17:59:58.435Z,26.37
2023-08-29T18:02:26.135Z,26.27
2023-08-29T18:04:53.039Z,26.11
2023-08-29T18:07:21.268Z,25.94
2023-08-29T18:10:06.499Z,25.69
2023-08-29T18:12:33.661Z,25.20
2023-08-29T18:15:00.804Z,25.18
2023-08-29T18:17:27.832Z,24.94
2023-08-29T18:19:56.544Z,24.75
2023-08-29T18:22:24.456Z,24.52
2023-08-29T18:24:51.596Z,24.51
2023-08-29T18:27:18.797Z,24.46
2023-08-29T18:29:46.825Z,24.36
2023-08-29T18:32:14.105Z,24.20
2023-08-29T18:34:40.861Z,24.03
2023-08-29T18:37:10.589Z,23.91
2023-08-29T18:39:38.486Z,23.87
2023-08-29T18:42:06.171Z,23.79
2023-08-29T18:44:35.179Z,23.70
2023-08-29T18:47:01.942Z,23.81
2023-08-29T18:49:29.488Z,23.85
2023-08-29T18:51:56.315Z,23.75
2023-08-29T18:54:23.117Z,23.72
2023-08-29T18:56:50.324Z,23.84
2023-08-29T18:59:17.145Z,23.78
2023-08-29T19:01:43.836Z,23.72
2023-08-29T19:04:10.527Z,23.77
2023-08-29T19:06:37.790Z,23.89
2023-08-29T19:09:04.904Z,23.85
2023-08-29T19:11:31.735Z,23.86
2023-08-29T19:13:58.517Z,23.91
2023-08-29T19:16:26.077Z,23.88
2023-08-29T19:18:53.015Z,23.91
2023-08-29T19:21:19.772Z,23.95
2023-08-29T19:23:46.521Z,23.80
2023-08-29T19:26:13.747Z,23.85
2023-08-29T19:28:40.590Z,23.86
2023-08-29T19:31:07.456Z,23.76
2023-08-29T19:33:34.232Z,23.74
2023-08-29T19:36:17.492Z,23.84
2023-08-29T19:38:44.978Z,24.01
2023-08-29T19:41:13.034Z,23.97
2023-08-29T19:43:40.047Z,23.99
2023-08-29T19:46:06.846Z,23.80
2023-08-29T19:48:33.928Z,23.61
2023-08-29T19:51:00.966Z,23.63
2023-08-29T19:53:27.806Z,23.75
2023-08-29T19:55:54.973Z,23.77
2023-08-29T19:58:24.876Z,23.86
2023-08-29T20:00:52.548Z,23.91
2023-08-29T20:03:19.742Z,23.91
2023-08-29T20:05:46.657Z,23.96
2023-08-29T20:08:16.056Z,24.09
2023-08-29T20:10:44.220Z,24.03
2023-08-29T20:13:11.115Z,24.05
2023-08-29T20:15:44.551Z,24.17
2023-08-29T20:18:12.656Z,24.19
2023-08-29T20:20:40.284Z,24.17
2023-08-29T20:23:07.620Z,24.03
2023-08-29T20:25:34.282Z,24.05
2023-08-29T20:28:01.912Z,24.07
2023-08-29T20:30:28.853Z,23.98
2023-08-29T20:32:55.902Z,23.93
2023-08-29T20:35:22.837Z,24.03
2023-08-29T20:37:49.518Z,24.07
2023-08-29T20:40:16.363Z,24.03
2023-08-29T20:42:43.323Z,23.94
2023-08-29T20:45:12.001Z,23.93
2023-08-29T20:47:39.429Z,23.92
2023-08-29T20:50:06.429Z,23.79
2023-08-29T20:52:33.182Z,23.88
2023-08-29T20:55:00.186Z,23.88
2023-08-29T20:57:26.881Z,23.90
2023-08-29T20:59:53.727Z,23.77
2023-08-29T21:02:22.752Z,23.56
2023-08-29T21:04:50.200Z,23.58
2023-08-29T21:07:17.157Z,23.53
2023-08-29T21:09:43.933Z,23.31
2023-08-29T21:12:10.729Z,23.18
2023-08-29T21:14:37.609Z,23.17
2023-08-29T21:17:04.804Z,23.20
2023-08-29T21:19:31.634Z,23.12
2023-08-29T21:21:58.468Z,22.88
2023-08-29T21:24:25.203Z,22.91
2023-08-29T21:26:51.998Z,22.65
2023-08-29T21:29:18.704Z,22.57
2023-08-29T21:31:45.597Z,22.63
2023-08-29T21:34:12.419Z,22.74
2023-08-29T21:36:39.618Z,22.85
2023-08-29T21:39:08.512Z,22.79
2023-08-29T21:41:35.362Z,22.81
2023-08-29T21:44:02.090Z,22.73
2023-08-29T21:46:28.924Z,22.88
2023-08-29T21:48:55.682Z,22.93
2023-08-29T21:51:24.020Z,22.61
2023-08-29T21:53:51.183Z,22.48
2023-08-29T21:56:20.023Z,22.80
2023-08-29T21:58:46.832Z,22.73
2023-08-29T22:01:13.733Z,22.62
2023-08-29T22:03:40.530Z,22.42
2023-08-29T22:06:07.468Z,22.44
2023-08-29T22:08:34.861Z,22.56
2023-08-29T22:11:02.907Z,22.38
2023-08-29T22:13:29.640Z,22.40
2023-08-29T22:15:56.579Z,22.48
2023-08-29T22:18:25.381Z,22.52
2023-08-29T22:20:52.255Z,22.34
2023-08-29T22:23:19.229Z,22.34
2023-08-29T22:25:46.113Z,22.07
2023-08-29T22:28:12.864Z,22.05
2023-08-29T22:30:39.753Z,21.96
2023-08-29T22:33:06.830Z,21.85
2023-08-29T22:35:33.618Z,21.76
2023-08-29T22:38:00.487Z,21.51
2023-08-29T22:40:27.309Z,21.63
2023-08-29T22:42:54.125Z,21.61
2023-08-29T22:45:20.913Z,21.67
2023-08-29T22:47:50.098Z,21.41
2023-08-29T22:50:16.980Z,21.23
2023-08-29T22:52:43.754Z,21.13
2023-08-29T22:55:10.547Z,21.01
2023-08-29T22:57:37.300Z,21.24
2023-08-29T23:00:05.637Z,21.10
2023-08-29T23:02:32.562Z,21.03
2023-08-29T23:04:59.290Z,21.26
2023-08-29T23:07:26.001Z,21.19
2023-08-29T23:09:52.751Z,21.19
2023-08-29T23:12:20.225Z,21.25
2023-08-29T23:14:47.007Z,21.24
2023-08-29T23:17:13.797Z,21.08
2023-08-29T23:19:44.977Z,21.28
2023-08-29T23:22:11.793Z,21.39
2023-08-29T23:24:38.844Z,21.14
2023-08-29T23:27:07.186Z,21.07
2023-08-29T23:29:34.091Z,20.96
2023-08-29T23:32:00.775Z,20.63
2023-08-29T23:34:27.586Z,20.73
2023-08-29T23:36:54.375Z,20.84
2023-08-29T23:39:21.191Z,20.89
2023-08-29T23:41:49.011Z,20.84
2023-08-29T23:44:15.841Z,20.94
2023-08-29T23:46:42.696Z,20.72
2023-08-29T23:49:09.459Z,20.85
2023-08-29T23:51:36.222Z,20.99
2023-08-29T23:54:02.999Z,21.05
2023-08-29T23:56:29.808Z,21.10
2023-08-29T23:58:56.550Z,21.15
